Troy, Missouri
Current Conditions -  °F | °C
As of 2:15 AM on Friday 21 Nov 2014 (Local Time) from KFYG Reporting Station
Clear Clear  
Wind Chill: 21°   Ceiling: Unl
Heat Index: 21°   Visibility: 10mi
Dew Point: 18°   Wind: 0mph
Humidity: 86%   Direction: NA
Pressure: 30.36"   Gusts: NA
Location:  38.98°N, 90.98°W
Report Text: KFYG 210815Z AUTO 00000KT 10SM CLR M06/M08 A3036 RMK AO2
Loading
Personal Weather Stations






























Interactive Weather Map New forecast layout! Learn more

10-Day Weather Forecast

Advertisements
Track Severe Weather on mobile